sensor_id;sensor_type;location;lat;lon;timestamp;temperature;humidity
7290;DHT22;63176;52.678;13.250;2023-05-10T00:00:41;13.50;1.00
7290;DHT22;63176;52.678;13.250;2023-05-10T00:03:07;13.50;1.00
7290;DHT22;63176;52.678;13.250;2023-05-10T00:05:33;13.40;1.00
7290;DHT22;63176;52.678;13.250;2023-05-10T00:07:58;13.40;1.00
7290;DHT22;63176;52.678;13.250;2023-05-10T00:10:24;13.40;1.00
7290;DHT22;63176;52.678;13.250;2023-05-10T00:12:50;13.40;1.00
7290;DHT22;63176;52.678;13.250;2023-05-10T00:15:15;13.30;1.00
7290;DHT22;63176;52.678;13.250;2023-05-10T00:17:41;13.30;1.00
7290;DHT22;63176;52.678;13.250;2023-05-10T00:20:07;13.30;1.00
7290;DHT22;63176;52.678;13.250;2023-05-10T00:22:33;13.30;1.00
7290;DHT22;63176;52.678;13.250;2023-05-10T00:24:59;13.20;1.00
7290;DHT22;63176;52.678;13.250;2023-05-10T00:27:24;13.20;1.00
7290;DHT22;63176;52.678;13.250;2023-05-10T00:29:50;13.20;1.00
7290;DHT22;63176;52.678;13.250;2023-05-10T00:32:16;13.20;1.00
7290;DHT22;63176;52.678;13.250;2023-05-10T00:34:42;13.20;1.00
7290;DHT22;63176;52.678;13.250;2023-05-10T00:37:08;13.10;1.00
7290;DHT22;63176;52.678;13.250;2023-05-10T00:39:33;13.10;1.00
7290;DHT22;63176;52.678;13.250;2023-05-10T00:41:59;13.00;1.00
7290;DHT22;63176;52.678;13.250;2023-05-10T00:44:25;13.00;1.00
7290;DHT22;63176;52.678;13.250;2023-05-10T00:46:51;13.00;1.00
7290;DHT22;63176;52.678;13.250;2023-05-10T00:49:17;13.00;1.00
7290;DHT22;63176;52.678;13.250;2023-05-10T00:51:44;13.00;1.00
7290;DHT22;63176;52.678;13.250;2023-05-10T00:54:11;13.00;1.00
7290;DHT22;63176;52.678;13.250;2023-05-10T00:56:39;13.00;1.00
7290;DHT22;63176;52.678;13.250;2023-05-10T00:59:05;13.00;1.00
7290;DHT22;63176;52.678;13.250;2023-05-10T01:01:32;12.90;1.00
7290;DHT22;63176;52.678;13.250;2023-05-10T01:03:58;12.90;1.00
7290;DHT22;63176;52.678;13.250;2023-05-10T01:06:24;12.90;1.00
7290;DHT22;63176;52.678;13.250;2023-05-10T01:08:49;12.90;1.00
7290;DHT22;63176;52.678;13.250;2023-05-10T01:11:16;12.90;1.00
7290;DHT22;63176;52.678;13.250;2023-05-10T01:13:43;12.90;1.00
7290;DHT22;63176;52.678;13.250;2023-05-10T01:16:12;12.80;1.00
7290;DHT22;63176;52.678;13.250;2023-05-10T01:18:40;12.90;1.00
7290;DHT22;63176;52.678;13.250;2023-05-10T01:29:52;12.80;1.00
7290;DHT22;63176;52.678;13.250;2023-05-10T01:32:27;12.70;1.00
7290;DHT22;63176;52.678;13.250;2023-05-10T01:40:32;12.70;1.00
7290;DHT22;63176;52.678;13.250;2023-05-10T01:43:03;12.70;1.00
7290;DHT22;63176;52.678;13.250;2023-05-10T01:45:38;12.70;1.00
7290;DHT22;63176;52.678;13.250;2023-05-10T01:48:11;12.60;1.00
7290;DHT22;63176;52.678;13.250;2023-05-10T01:50:43;12.50;1.00
7290;DHT22;63176;52.678;13.250;2023-05-10T01:53:10;12.40;1.00
7290;DHT22;63176;52.678;13.250;2023-05-10T01:55:44;12.40;1.00
7290;DHT22;63176;52.678;13.250;2023-05-10T01:58:20;12.40;1.00
7290;DHT22;63176;52.678;13.250;2023-05-10T02:00:48;12.40;1.00
7290;DHT22;63176;52.678;13.250;2023-05-10T02:03:16;12.30;1.00
7290;DHT22;63176;52.678;13.250;2023-05-10T02:05:44;12.30;1.00
7290;DHT22;63176;52.678;13.250;2023-05-10T02:08:12;12.30;1.00
7290;DHT22;63176;52.678;13.250;2023-05-10T02:10:39;12.20;1.00
7290;DHT22;63176;52.678;13.250;2023-05-10T02:13:06;12.20;1.00
7290;DHT22;63176;52.678;13.250;2023-05-10T02:15:33;12.20;1.00
7290;DHT22;63176;52.678;13.250;2023-05-10T02:18:00;11.90;1.00
7290;DHT22;63176;52.678;13.250;2023-05-10T02:20:27;12.20;1.00
7290;DHT22;63176;52.678;13.250;2023-05-10T02:22:55;12.20;1.00
7290;DHT22;63176;52.678;13.250;2023-05-10T02:25:23;12.20;1.00
7290;DHT22;63176;52.678;13.250;2023-05-10T02:27:50;12.20;1.00
7290;DHT22;63176;52.678;13.250;2023-05-10T02:30:18;12.20;1.00
7290;DHT22;63176;52.678;13.250;2023-05-10T02:32:44;12.20;1.00
7290;DHT22;63176;52.678;13.250;2023-05-10T02:35:11;12.20;1.00
7290;DHT22;63176;52.678;13.250;2023-05-10T02:37:38;12.10;1.00
7290;DHT22;63176;52.678;13.250;2023-05-10T02:40:05;12.00;1.00
7290;DHT22;63176;52.678;13.250;2023-05-10T02:42:35;12.10;1.00
7290;DHT22;63176;52.678;13.250;2023-05-10T02:45:02;12.00;1.00
7290;DHT22;63176;52.678;13.250;2023-05-10T02:47:29;12.00;1.00
7290;DHT22;63176;52.678;13.250;2023-05-10T02:49:55;12.00;1.00
7290;DHT22;63176;52.678;13.250;2023-05-10T02:52:27;12.00;1.00
7290;DHT22;63176;52.678;13.250;2023-05-10T02:54:55;11.90;1.00
7290;DHT22;63176;52.678;13.250;2023-05-10T02:57:27;11.90;1.00
7290;DHT22;63176;52.678;13.250;2023-05-10T02:59:54;11.80;1.00
7290;DHT22;63176;52.678;13.250;2023-05-10T03:02:20;11.80;1.00
7290;DHT22;63176;52.678;13.250;2023-05-10T03:04:46;11.80;1.00
7290;DHT22;63176;52.678;13.250;2023-05-10T03:07:13;11.80;1.00
7290;DHT22;63176;52.678;13.250;2023-05-10T03:09:39;11.80;1.00
7290;DHT22;63176;52.678;13.250;2023-05-10T03:20:36;11.80;1.00
7290;DHT22;63176;52.678;13.250;2023-05-10T03:26:24;11.80;1.00
7290;DHT22;63176;52.678;13.250;2023-05-10T03:28:52;11.70;1.00
7290;DHT22;63176;52.678;13.250;2023-05-10T03:31:18;11.70;1.00
7290;DHT22;63176;52.678;13.250;2023-05-10T03:33:50;11.70;1.00
7290;DHT22;63176;52.678;13.250;2023-05-10T03:36:17;11.70;1.00
7290;DHT22;63176;52.678;13.250;2023-05-10T03:38:42;11.70;1.00
7290;DHT22;63176;52.678;13.250;2023-05-10T03:41:08;11.60;1.00
7290;DHT22;63176;52.678;13.250;2023-05-10T03:43:34;11.60;1.00
7290;DHT22;63176;52.678;13.250;2023-05-10T03:46:04;11.60;1.00
7290;DHT22;63176;52.678;13.250;2023-05-10T03:48:32;11.60;1.00
7290;DHT22;63176;52.678;13.250;2023-05-10T03:50:58;11.60;1.00
7290;DHT22;63176;52.678;13.250;2023-05-10T03:53:27;11.60;1.00
7290;DHT22;63176;52.678;13.250;2023-05-10T03:55:53;11.60;1.00
7290;DHT22;63176;52.678;13.250;2023-05-10T03:58:19;11.60;1.00
7290;DHT22;63176;52.678;13.250;2023-05-10T04:00:45;11.60;1.00
7290;DHT22;63176;52.678;13.250;2023-05-10T04:03:14;11.60;1.00
7290;DHT22;63176;52.678;13.250;2023-05-10T04:05:39;11.60;1.00
7290;DHT22;63176;52.678;13.250;2023-05-10T04:08:05;11.60;1.00
7290;DHT22;63176;52.678;13.250;2023-05-10T04:10:31;11.60;1.00
7290;DHT22;63176;52.678;13.250;2023-05-10T04:12:57;11.60;1.00
7290;DHT22;63176;52.678;13.250;2023-05-10T04:15:22;11.60;1.00
7290;DHT22;63176;52.678;13.250;2023-05-10T04:17:48;11.60;1.00
7290;DHT22;63176;52.678;13.250;2023-05-10T04:20:14;11.50;1.00
7290;DHT22;63176;52.678;13.250;2023-05-10T04:22:40;11.70;1.00
7290;DHT22;63176;52.678;13.250;2023-05-10T04:25:06;11.80;1.00
7290;DHT22;63176;52.678;13.250;2023-05-10T04:27:32;11.80;1.00
7290;DHT22;63176;52.678;13.250;2023-05-10T04:29:58;11.80;1.00
7290;DHT22;63176;52.678;13.250;2023-05-10T04:32:24;11.90;1.00
7290;DHT22;63176;52.678;13.250;2023-05-10T04:34:49;12.00;1.00
7290;DHT22;63176;52.678;13.250;2023-05-10T04:37:16;12.00;1.00
7290;DHT22;63176;52.678;13.250;2023-05-10T04:39:42;12.10;1.00
7290;DHT22;63176;52.678;13.250;2023-05-10T04:42:08;12.20;1.00
7290;DHT22;63176;52.678;13.250;2023-05-10T04:44:34;12.20;1.00
7290;DHT22;63176;52.678;13.250;2023-05-10T04:46:59;12.30;1.00
7290;DHT22;63176;52.678;13.250;2023-05-10T04:49:25;12.30;1.00
7290;DHT22;63176;52.678;13.250;2023-05-10T04:51:51;12.40;1.00
7290;DHT22;63176;52.678;13.250;2023-05-10T04:54:16;12.40;1.00
7290;DHT22;63176;52.678;13.250;2023-05-10T04:56:42;12.50;1.00
7290;DHT22;63176;52.678;13.250;2023-05-10T04:59:07;12.50;1.00
7290;DHT22;63176;52.678;13.250;2023-05-10T05:01:33;12.60;1.00
7290;DHT22;63176;52.678;13.250;2023-05-10T05:03:59;12.70;1.00
7290;DHT22;63176;52.678;13.250;2023-05-10T05:06:25;12.70;1.00
7290;DHT22;63176;52.678;13.250;2023-05-10T05:08:51;12.80;1.00
7290;DHT22;63176;52.678;13.250;2023-05-10T05:11:17;12.90;1.00
7290;DHT22;63176;52.678;13.250;2023-05-10T05:13:43;13.00;1.00
7290;DHT22;63176;52.678;13.250;2023-05-10T05:16:08;13.10;1.00
7290;DHT22;63176;52.678;13.250;2023-05-10T05:18:34;13.00;1.00
7290;DHT22;63176;52.678;13.250;2023-05-10T05:21:00;13.20;1.00
7290;DHT22;63176;52.678;13.250;2023-05-10T05:23:26;13.20;1.00
7290;DHT22;63176;52.678;13.250;2023-05-10T05:25:52;13.30;1.00
7290;DHT22;63176;52.678;13.250;2023-05-10T05:28:19;13.50;1.00
7290;DHT22;63176;52.678;13.250;2023-05-10T05:30:45;13.50;1.00
7290;DHT22;63176;52.678;13.250;2023-05-10T05:33:12;13.50;1.00
7290;DHT22;63176;52.678;13.250;2023-05-10T05:35:38;13.60;1.00
7290;DHT22;63176;52.678;13.250;2023-05-10T05:38:04;13.60;1.00
7290;DHT22;63176;52.678;13.250;2023-05-10T05:40:29;13.60;1.00
7290;DHT22;63176;52.678;13.250;2023-05-10T05:42:55;13.70;1.00
7290;DHT22;63176;52.678;13.250;2023-05-10T05:45:20;13.80;1.00
7290;DHT22;63176;52.678;13.250;2023-05-10T05:47:46;13.90;1.00
7290;DHT22;63176;52.678;13.250;2023-05-10T05:50:12;13.90;1.00
7290;DHT22;63176;52.678;13.250;2023-05-10T05:52:38;14.00;1.00
7290;DHT22;63176;52.678;13.250;2023-05-10T05:55:04;14.00;1.00
7290;DHT22;63176;52.678;13.250;2023-05-10T05:57:29;14.10;1.00
7290;DHT22;63176;52.678;13.250;2023-05-10T05:59:55;14.20;1.00
7290;DHT22;63176;52.678;13.250;2023-05-10T06:02:21;14.20;1.00
7290;DHT22;63176;52.678;13.250;2023-05-10T06:04:46;14.20;1.00
7290;DHT22;63176;52.678;13.250;2023-05-10T06:07:12;14.30;1.00
7290;DHT22;63176;52.678;13.250;2023-05-10T06:09:38;14.40;1.00
7290;DHT22;63176;52.678;13.250;2023-05-10T06:12:03;14.50;1.00
7290;DHT22;63176;52.678;13.250;2023-05-10T06:14:29;14.50;1.00
7290;DHT22;63176;52.678;13.250;2023-05-10T06:16:55;14.60;1.00
7290;DHT22;63176;52.678;13.250;2023-05-10T06:19:20;14.70;1.00
7290;DHT22;63176;52.678;13.250;2023-05-10T06:21:46;14.80;1.00
7290;DHT22;63176;52.678;13.250;2023-05-10T06:24:11;14.90;1.00
7290;DHT22;63176;52.678;13.250;2023-05-10T06:26:37;14.90;1.00
7290;DHT22;63176;52.678;13.250;2023-05-10T06:29:02;15.00;1.00
7290;DHT22;63176;52.678;13.250;2023-05-10T06:31:28;15.10;1.00
7290;DHT22;63176;52.678;13.250;2023-05-10T06:33:53;15.10;1.00
7290;DHT22;63176;52.678;13.250;2023-05-10T06:36:19;15.20;1.00
7290;DHT22;63176;52.678;13.250;2023-05-10T06:38:45;15.20;1.00
7290;DHT22;63176;52.678;13.250;2023-05-10T06:41:10;15.30;1.00
7290;DHT22;63176;52.678;13.250;2023-05-10T06:43:36;15.40;1.00
7290;DHT22;63176;52.678;13.250;2023-05-10T06:46:05;15.40;1.00
7290;DHT22;63176;52.678;13.250;2023-05-10T06:48:31;15.50;1.00
7290;DHT22;63176;52.678;13.250;2023-05-10T06:50:57;15.50;1.00
7290;DHT22;63176;52.678;13.250;2023-05-10T06:53:23;15.60;1.00
7290;DHT22;63176;52.678;13.250;2023-05-10T06:55:49;15.70;1.00
7290;DHT22;63176;52.678;13.250;2023-05-10T06:58:15;15.80;1.00
7290;DHT22;63176;52.678;13.250;2023-05-10T07:00:41;15.80;1.00
7290;DHT22;63176;52.678;13.250;2023-05-10T07:03:11;15.80;1.00
7290;DHT22;63176;52.678;13.250;2023-05-10T07:05:37;15.90;1.00
7290;DHT22;63176;52.678;13.250;2023-05-10T07:08:03;15.90;1.00
7290;DHT22;63176;52.678;13.250;2023-05-10T07:10:29;15.90;1.00
7290;DHT22;63176;52.678;13.250;2023-05-10T07:12:55;15.90;1.00
7290;DHT22;63176;52.678;13.250;2023-05-10T07:15:20;16.00;1.00
7290;DHT22;63176;52.678;13.250;2023-05-10T07:17:46;16.00;1.00
7290;DHT22;63176;52.678;13.250;2023-05-10T07:20:12;16.10;1.00
7290;DHT22;63176;52.678;13.250;2023-05-10T07:22:38;16.10;1.00
7290;DHT22;63176;52.678;13.250;2023-05-10T07:25:03;16.20;1.00
7290;DHT22;63176;52.678;13.250;2023-05-10T07:27:29;16.20;1.00
7290;DHT22;63176;52.678;13.250;2023-05-10T07:29:55;16.30;1.00
7290;DHT22;63176;52.678;13.250;2023-05-10T07:32:21;16.30;1.00
7290;DHT22;63176;52.678;13.250;2023-05-10T07:34:47;16.40;1.00
7290;DHT22;63176;52.678;13.250;2023-05-10T07:37:13;16.40;1.00
7290;DHT22;63176;52.678;13.250;2023-05-10T07:39:38;16.50;1.00
7290;DHT22;63176;52.678;13.250;2023-05-10T07:42:04;16.50;1.00
7290;DHT22;63176;52.678;13.250;2023-05-10T07:44:29;16.50;1.00
7290;DHT22;63176;52.678;13.250;2023-05-10T07:46:55;16.60;1.00
7290;DHT22;63176;52.678;13.250;2023-05-10T07:49:22;16.60;1.00
7290;DHT22;63176;52.678;13.250;2023-05-10T07:51:49;16.60;1.00
7290;DHT22;63176;52.678;13.250;2023-05-10T07:54:15;16.70;1.00
7290;DHT22;63176;52.678;13.250;2023-05-10T07:56:41;16.70;1.00
7290;DHT22;63176;52.678;13.250;2023-05-10T07:59:15;16.70;1.00
7290;DHT22;63176;52.678;13.250;2023-05-10T08:01:41;16.80;1.00
7290;DHT22;63176;52.678;13.250;2023-05-10T08:04:07;16.80;1.00
7290;DHT22;63176;52.678;13.250;2023-05-10T08:06:32;16.90;1.00
7290;DHT22;63176;52.678;13.250;2023-05-10T08:08:58;16.90;1.00
7290;DHT22;63176;52.678;13.250;2023-05-10T08:11:25;17.00;1.00
7290;DHT22;63176;52.678;13.250;2023-05-10T08:13:51;17.00;1.00
7290;DHT22;63176;52.678;13.250;2023-05-10T08:16:17;17.10;1.00
7290;DHT22;63176;52.678;13.250;2023-05-10T08:18:44;17.10;1.00
7290;DHT22;63176;52.678;13.250;2023-05-10T08:21:12;17.20;1.00
7290;DHT22;63176;52.678;13.250;2023-05-10T08:23:37;17.30;1.00
7290;DHT22;63176;52.678;13.250;2023-05-10T08:26:03;17.40;1.00
7290;DHT22;63176;52.678;13.250;2023-05-10T08:28:29;17.40;1.00
7290;DHT22;63176;52.678;13.250;2023-05-10T08:30:55;17.50;1.00
7290;DHT22;63176;52.678;13.250;2023-05-10T08:33:20;17.50;1.00
7290;DHT22;63176;52.678;13.250;2023-05-10T08:35:46;17.60;1.00
7290;DHT22;63176;52.678;13.250;2023-05-10T08:38:12;17.60;1.00
7290;DHT22;63176;52.678;13.250;2023-05-10T08:40:43;17.70;1.00
7290;DHT22;63176;52.678;13.250;2023-05-10T08:43:11;17.70;1.00
7290;DHT22;63176;52.678;13.250;2023-05-10T08:45:41;17.80;1.00
7290;DHT22;63176;52.678;13.250;2023-05-10T08:48:08;17.90;1.00
7290;DHT22;63176;52.678;13.250;2023-05-10T08:50:36;17.90;1.00
7290;DHT22;63176;52.678;13.250;2023-05-10T08:53:05;17.90;1.00
7290;DHT22;63176;52.678;13.250;2023-05-10T08:55:32;18.00;1.00
7290;DHT22;63176;52.678;13.250;2023-05-10T08:58:03;18.10;1.00
7290;DHT22;63176;52.678;13.250;2023-05-10T09:00:29;18.20;1.00
7290;DHT22;63176;52.678;13.250;2023-05-10T09:03:00;18.30;1.00
7290;DHT22;63176;52.678;13.250;2023-05-10T09:05:25;18.30;1.00
7290;DHT22;63176;52.678;13.250;2023-05-10T09:07:51;18.40;1.00
7290;DHT22;63176;52.678;13.250;2023-05-10T09:10:17;18.40;1.00
7290;DHT22;63176;52.678;13.250;2023-05-10T09:12:44;18.60;1.00
7290;DHT22;63176;52.678;13.250;2023-05-10T09:15:11;18.70;1.00
7290;DHT22;63176;52.678;13.250;2023-05-10T09:17:38;18.80;1.00
7290;DHT22;63176;52.678;13.250;2023-05-10T09:20:05;18.90;1.00
7290;DHT22;63176;52.678;13.250;2023-05-10T09:22:31;19.00;1.00
7290;DHT22;63176;52.678;13.250;2023-05-10T09:25:08;19.00;1.00
7290;DHT22;63176;52.678;13.250;2023-05-10T09:27:35;19.20;1.00
7290;DHT22;63176;52.678;13.250;2023-05-10T09:30:02;19.20;1.00
7290;DHT22;63176;52.678;13.250;2023-05-10T09:32:42;19.40;1.00
7290;DHT22;63176;52.678;13.250;2023-05-10T09:37:38;19.50;1.00
7290;DHT22;63176;52.678;13.250;2023-05-10T09:40:07;19.60;1.00
7290;DHT22;63176;52.678;13.250;2023-05-10T09:42:34;19.70;1.00
7290;DHT22;63176;52.678;13.250;2023-05-10T09:45:03;19.80;1.00
7290;DHT22;63176;52.678;13.250;2023-05-10T09:47:32;19.90;1.00
7290;DHT22;63176;52.678;13.250;2023-05-10T09:49:58;20.00;1.00
7290;DHT22;63176;52.678;13.250;2023-05-10T09:52:29;20.10;1.00
7290;DHT22;63176;52.678;13.250;2023-05-10T09:54:55;20.10;1.00
7290;DHT22;63176;52.678;13.250;2023-05-10T09:57:21;20.20;1.00
7290;DHT22;63176;52.678;13.250;2023-05-10T09:59:48;20.30;1.00
7290;DHT22;63176;52.678;13.250;2023-05-10T10:02:13;20.50;1.00
7290;DHT22;63176;52.678;13.250;2023-05-10T10:04:40;20.60;1.00
7290;DHT22;63176;52.678;13.250;2023-05-10T10:07:06;20.70;1.00
7290;DHT22;63176;52.678;13.250;2023-05-10T10:09:32;20.70;1.00
7290;DHT22;63176;52.678;13.250;2023-05-10T10:12:02;20.70;1.00
7290;DHT22;63176;52.678;13.250;2023-05-10T10:14:29;20.70;1.00
7290;DHT22;63176;52.678;13.250;2023-05-10T10:16:55;20.80;1.00
7290;DHT22;63176;52.678;13.250;2023-05-10T10:19:22;20.80;1.00
7290;DHT22;63176;52.678;13.250;2023-05-10T10:21:49;21.00;1.00
7290;DHT22;63176;52.678;13.250;2023-05-10T10:24:15;21.10;1.00
7290;DHT22;63176;52.678;13.250;2023-05-10T10:26:42;21.20;1.00
7290;DHT22;63176;52.678;13.250;2023-05-10T10:29:30;21.40;1.00
7290;DHT22;63176;52.678;13.250;2023-05-10T10:32:42;21.60;1.00
7290;DHT22;63176;52.678;13.250;2023-05-10T10:34:55;21.70;1.00
7290;DHT22;63176;52.678;13.250;2023-05-10T10:37:21;21.70;1.00
7290;DHT22;63176;52.678;13.250;2023-05-10T10:39:48;21.70;1.00
7290;DHT22;63176;52.678;13.250;2023-05-10T10:42:43;21.90;1.00
7290;DHT22;63176;52.678;13.250;2023-05-10T10:45:13;22.10;1.00
7290;DHT22;63176;52.678;13.250;2023-05-10T10:47:38;22.40;1.00
7290;DHT22;63176;52.678;13.250;2023-05-10T10:50:06;22.50;1.00
7290;DHT22;63176;52.678;13.250;2023-05-10T10:52:43;22.60;1.00
7290;DHT22;63176;52.678;13.250;2023-05-10T10:55:19;22.70;1.00
7290;DHT22;63176;52.678;13.250;2023-05-10T10:57:52;22.90;1.00
7290;DHT22;63176;52.678;13.250;2023-05-10T11:03:09;23.30;1.00
7290;DHT22;63176;52.678;13.250;2023-05-10T11:05:39;23.50;1.00
7290;DHT22;63176;52.678;13.250;2023-05-10T11:11:05;23.70;1.00
7290;DHT22;63176;52.678;13.250;2023-05-10T11:13:45;23.70;1.00
7290;DHT22;63176;52.678;13.250;2023-05-10T11:18:58;23.90;1.00
7290;DHT22;63176;52.678;13.250;2023-05-10T11:21:26;24.00;1.00
7290;DHT22;63176;52.678;13.250;2023-05-10T11:23:56;24.10;1.00
7290;DHT22;63176;52.678;13.250;2023-05-10T11:26:30;24.20;1.00
7290;DHT22;63176;52.678;13.250;2023-05-10T11:28:56;24.10;1.00
7290;DHT22;63176;52.678;13.250;2023-05-10T11:31:23;24.10;1.00
7290;DHT22;63176;52.678;13.250;2023-05-10T11:33:54;24.10;1.00
7290;DHT22;63176;52.678;13.250;2023-05-10T11:36:24;24.10;1.00
7290;DHT22;63176;52.678;13.250;2023-05-10T11:38:49;24.20;1.00
7290;DHT22;63176;52.678;13.250;2023-05-10T11:41:17;24.20;1.00
7290;DHT22;63176;52.678;13.250;2023-05-10T11:43:46;24.20;1.00
7290;DHT22;63176;52.678;13.250;2023-05-10T11:46:12;24.20;1.00
7290;DHT22;63176;52.678;13.250;2023-05-10T11:48:39;24.40;1.00
7290;DHT22;63176;52.678;13.250;2023-05-10T11:51:08;24.50;1.00
7290;DHT22;63176;52.678;13.250;2023-05-10T11:53:34;24.60;1.00
7290;DHT22;63176;52.678;13.250;2023-05-10T11:56:07;24.70;1.00
7290;DHT22;63176;52.678;13.250;2023-05-10T11:58:34;24.80;1.00
7290;DHT22;63176;52.678;13.250;2023-05-10T12:01:00;24.90;1.00
7290;DHT22;63176;52.678;13.250;2023-05-10T12:03:27;24.90;1.00
7290;DHT22;63176;52.678;13.250;2023-05-10T12:05:54;24.90;1.00
7290;DHT22;63176;52.678;13.250;2023-05-10T12:08:22;25.00;1.00
7290;DHT22;63176;52.678;13.250;2023-05-10T12:10:48;25.00;1.00
7290;DHT22;63176;52.678;13.250;2023-05-10T12:13:14;25.00;1.00
7290;DHT22;63176;52.678;13.250;2023-05-10T12:15:41;25.00;1.00
7290;DHT22;63176;52.678;13.250;2023-05-10T12:18:11;25.10;1.00
7290;DHT22;63176;52.678;13.250;2023-05-10T12:20:37;25.10;1.00
7290;DHT22;63176;52.678;13.250;2023-05-10T12:23:04;25.30;1.00
7290;DHT22;63176;52.678;13.250;2023-05-10T12:25:32;25.40;1.00
7290;DHT22;63176;52.678;13.250;2023-05-10T12:28:00;25.40;1.00
7290;DHT22;63176;52.678;13.250;2023-05-10T12:30:30;25.40;1.00
7290;DHT22;63176;52.678;13.250;2023-05-10T12:33:10;25.30;1.00
7290;DHT22;63176;52.678;13.250;2023-05-10T12:35:47;25.40;1.00
7290;DHT22;63176;52.678;13.250;2023-05-10T12:38:33;25.50;1.00
7290;DHT22;63176;52.678;13.250;2023-05-10T12:41:10;25.50;1.00
7290;DHT22;63176;52.678;13.250;2023-05-10T12:43:35;25.60;1.00
7290;DHT22;63176;52.678;13.250;2023-05-10T12:46:06;25.70;1.00
7290;DHT22;63176;52.678;13.250;2023-05-10T12:48:32;25.70;1.00
7290;DHT22;63176;52.678;13.250;2023-05-10T12:50:59;25.90;1.00
7290;DHT22;63176;52.678;13.250;2023-05-10T12:53:25;26.00;1.00
7290;DHT22;63176;52.678;13.250;2023-05-10T12:55:51;26.00;1.00
7290;DHT22;63176;52.678;13.250;2023-05-10T12:58:16;26.00;1.00
7290;DHT22;63176;52.678;13.250;2023-05-10T13:00:42;26.00;1.00
7290;DHT22;63176;52.678;13.250;2023-05-10T13:03:09;26.00;1.00
7290;DHT22;63176;52.678;13.250;2023-05-10T13:05:35;26.00;1.00
7290;DHT22;63176;52.678;13.250;2023-05-10T13:08:01;26.00;1.00
7290;DHT22;63176;52.678;13.250;2023-05-10T13:10:29;26.00;1.00
7290;DHT22;63176;52.678;13.250;2023-05-10T13:12:56;26.00;1.00
7290;DHT22;63176;52.678;13.250;2023-05-10T13:15:22;26.20;1.00
7290;DHT22;63176;52.678;13.250;2023-05-10T13:17:47;26.30;1.00
7290;DHT22;63176;52.678;13.250;2023-05-10T13:20:13;26.40;1.00
7290;DHT22;63176;52.678;13.250;2023-05-10T13:22:41;26.50;1.00
7290;DHT22;63176;52.678;13.250;2023-05-10T13:25:07;26.40;1.00
7290;DHT22;63176;52.678;13.250;2023-05-10T13:27:33;26.50;1.00
7290;DHT22;63176;52.678;13.250;2023-05-10T13:29:58;26.50;1.00
7290;DHT22;63176;52.678;13.250;2023-05-10T13:32:25;26.50;1.00
7290;DHT22;63176;52.678;13.250;2023-05-10T13:34:51;26.50;1.00
7290;DHT22;63176;52.678;13.250;2023-05-10T13:37:17;26.60;1.00
7290;DHT22;63176;52.678;13.250;2023-05-10T13:39:42;26.70;1.00
7290;DHT22;63176;52.678;13.250;2023-05-10T13:42:08;26.70;1.00
7290;DHT22;63176;52.678;13.250;2023-05-10T13:44:33;26.60;1.00
7290;DHT22;63176;52.678;13.250;2023-05-10T13:46:59;26.70;1.00
7290;DHT22;63176;52.678;13.250;2023-05-10T13:49:25;26.80;1.00
7290;DHT22;63176;52.678;13.250;2023-05-10T13:51:50;26.80;1.00
7290;DHT22;63176;52.678;13.250;2023-05-10T13:54:16;26.80;1.00
7290;DHT22;63176;52.678;13.250;2023-05-10T13:56:45;26.50;1.00
7290;DHT22;63176;52.678;13.250;2023-05-10T13:59:12;26.30;1.00
7290;DHT22;63176;52.678;13.250;2023-05-10T14:01:40;26.20;1.00
7290;DHT22;63176;52.678;13.250;2023-05-10T14:04:05;26.40;1.00
7290;DHT22;63176;52.678;13.250;2023-05-10T14:06:32;26.50;1.00
7290;DHT22;63176;52.678;13.250;2023-05-10T14:08:58;26.60;1.00
7290;DHT22;63176;52.678;13.250;2023-05-10T14:11:24;26.60;1.00
7290;DHT22;63176;52.678;13.250;2023-05-10T14:13:49;26.80;1.00
7290;DHT22;63176;52.678;13.250;2023-05-10T14:16:15;26.90;1.00
7290;DHT22;63176;52.678;13.250;2023-05-10T14:18:41;26.90;1.00
7290;DHT22;63176;52.678;13.250;2023-05-10T14:21:06;27.20;1.00
7290;DHT22;63176;52.678;13.250;2023-05-10T14:23:32;27.40;1.00
7290;DHT22;63176;52.678;13.250;2023-05-10T14:25:57;27.50;1.00
7290;DHT22;63176;52.678;13.250;2023-05-10T14:28:23;27.80;1.00
7290;DHT22;63176;52.678;13.250;2023-05-10T14:30:50;27.90;1.00
7290;DHT22;63176;52.678;13.250;2023-05-10T14:33:16;28.00;1.00
7290;DHT22;63176;52.678;13.250;2023-05-10T14:35:42;28.10;1.00
7290;DHT22;63176;52.678;13.250;2023-05-10T14:38:08;28.20;1.00
7290;DHT22;63176;52.678;13.250;2023-05-10T14:40:34;28.40;1.00
7290;DHT22;63176;52.678;13.250;2023-05-10T14:43:00;28.50;1.00
7290;DHT22;63176;52.678;13.250;2023-05-10T14:45:25;28.70;1.00
7290;DHT22;63176;52.678;13.250;2023-05-10T14:47:51;28.90;1.00
7290;DHT22;63176;52.678;13.250;2023-05-10T14:50:16;29.10;1.00
7290;DHT22;63176;52.678;13.250;2023-05-10T14:52:43;29.20;1.00
7290;DHT22;63176;52.678;13.250;2023-05-10T14:55:09;29.20;1.00
7290;DHT22;63176;52.678;13.250;2023-05-10T14:57:35;28.40;1.00
7290;DHT22;63176;52.678;13.250;2023-05-10T15:00:00;27.80;1.00
7290;DHT22;63176;52.678;13.250;2023-05-10T15:02:26;27.10;1.00
7290;DHT22;63176;52.678;13.250;2023-05-10T15:04:51;27.00;1.00
7290;DHT22;63176;52.678;13.250;2023-05-10T15:07:17;27.10;1.00
7290;DHT22;63176;52.678;13.250;2023-05-10T15:09:44;27.10;1.00
7290;DHT22;63176;52.678;13.250;2023-05-10T15:12:09;26.80;1.00
7290;DHT22;63176;52.678;13.250;2023-05-10T15:14:35;26.50;1.00
7290;DHT22;63176;52.678;13.250;2023-05-10T15:17:02;26.30;1.00
7290;DHT22;63176;52.678;13.250;2023-05-10T15:19:28;27.00;1.00
7290;DHT22;63176;52.678;13.250;2023-05-10T15:21:54;27.60;1.00
7290;DHT22;63176;52.678;13.250;2023-05-10T15:24:21;28.20;1.00
7290;DHT22;63176;52.678;13.250;2023-05-10T15:26:47;28.70;1.00
7290;DHT22;63176;52.678;13.250;2023-05-10T15:29:12;28.90;1.00
7290;DHT22;63176;52.678;13.250;2023-05-10T15:31:48;29.10;1.00
7290;DHT22;63176;52.678;13.250;2023-05-10T15:34:14;29.80;1.00
7290;DHT22;63176;52.678;13.250;2023-05-10T15:36:40;30.20;1.00
7290;DHT22;63176;52.678;13.250;2023-05-10T15:39:05;30.00;1.00
7290;DHT22;63176;52.678;13.250;2023-05-10T15:41:31;29.50;1.00
7290;DHT22;63176;52.678;13.250;2023-05-10T15:43:58;28.80;1.00
7290;DHT22;63176;52.678;13.250;2023-05-10T15:46:28;28.30;1.00
7290;DHT22;63176;52.678;13.250;2023-05-10T15:48:53;27.80;1.00
7290;DHT22;63176;52.678;13.250;2023-05-10T15:51:19;27.30;1.00
7290;DHT22;63176;52.678;13.250;2023-05-10T15:53:45;26.60;1.00
7290;DHT22;63176;52.678;13.250;2023-05-10T15:56:11;26.10;1.00
7290;DHT22;63176;52.678;13.250;2023-05-10T15:58:38;25.70;1.00
7290;DHT22;63176;52.678;13.250;2023-05-10T16:01:04;25.50;1.00
7290;DHT22;63176;52.678;13.250;2023-05-10T16:03:33;25.30;1.00
7290;DHT22;63176;52.678;13.250;2023-05-10T16:05:59;25.10;1.00
7290;DHT22;63176;52.678;13.250;2023-05-10T16:08:25;24.80;1.00
7290;DHT22;63176;52.678;13.250;2023-05-10T16:10:51;24.70;1.00
7290;DHT22;63176;52.678;13.250;2023-05-10T16:13:17;24.60;1.00
7290;DHT22;63176;52.678;13.250;2023-05-10T16:15:42;24.60;1.00
7290;DHT22;63176;52.678;13.250;2023-05-10T16:18:08;24.50;1.00
7290;DHT22;63176;52.678;13.250;2023-05-10T16:20:35;24.50;1.00